Time;durP1;ratioP1;P1;durP2;ratioP2;P2;SDS_P1;SDS_P2;PMS_P1;PMS_P2;Temp;Humidity;BMP_temperature;BMP_pressure;BME280_temperature;BME280_humidity;BME280_pressure;Samples;Min_cycle;Max_cycle;Signal;HPM_P1;HPM_P2
2021/08/02 00:02:28;;;;;;;10.15;3.80;;;;;;;15.08;91.64;98850.81;5044635;28;20021;-64
2021/08/02 00:05:00;;;;;;;6.43;2.83;;;;;;;15.01;91.67;98874.03;5044945;28;20021;-64
2021/08/02 00:07:28;;;;;;;7.78;4.25;;;;;;;14.95;91.85;98871.59;5044525;28;20079;-64
2021/08/02 00:09:58;;;;;;;8.25;3.08;;;;;;;14.99;91.42;98886.47;5050290;28;20029;-64
2021/08/02 00:12:28;;;;;;;6.05;3.53;;;;;;;14.91;91.63;98887.63;5064740;28;20024;-64
2021/08/02 00:14:58;;;;;;;6.53;3.35;;;;;;;14.88;91.35;98922.19;5064462;28;20017;-64
2021/08/02 00:17:25;;;;;;;8.02;3.45;;;;;;;14.81;91.44;98910.91;5064478;28;20028;-64
2021/08/02 00:19:52;;;;;;;11.13;3.67;;;;;;;14.88;91.57;98938.94;5064372;28;20021;-64
2021/08/02 00:22:18;;;;;;;8.13;4.05;;;;;;;14.88;91.80;98959.28;5064374;28;20049;-64
2021/08/02 00:24:44;;;;;;;6.57;3.38;;;;;;;14.92;91.96;98960.94;5064412;28;20063;-64
2021/08/02 00:27:10;;;;;;;19.52;3.60;;;;;;;14.92;91.43;98963.56;5064562;28;20216;-64
2021/08/02 00:29:39;;;;;;;5.35;3.28;;;;;;;14.87;91.65;98965.50;5064172;28;20025;-64
2021/08/02 00:32:06;;;;;;;13.30;3.70;;;;;;;14.95;91.81;98939.63;5064215;28;20036;-64
2021/08/02 00:34:31;;;;;;;7.82;3.42;;;;;;;14.97;91.89;98985.53;5064180;28;20039;-64
2021/08/02 00:37:05;;;;;;;6.97;3.67;;;;;;;14.93;91.45;98983.84;5063667;28;20044;-64
2021/08/02 00:39:33;;;;;;;7.78;3.33;;;;;;;14.96;91.71;98994.38;5044267;28;20021;-64
2021/08/02 00:42:37;;;;;;;7.38;3.38;;;;;;;14.96;91.61;98999.66;5044115;28;20089;-64
2021/08/02 00:45:22;;;;;;;4.82;3.17;;;;;;;14.89;91.26;99003.44;5059872;28;20318;-64
2021/08/02 00:47:48;;;;;;;8.80;3.38;;;;;;;14.88;90.70;99007.84;5063680;28;20017;-64
2021/08/02 00:50:25;;;;;;;7.05;3.45;;;;;;;14.85;91.55;99000.03;5064267;28;20031;-64
2021/08/02 00:53:00;;;;;;;10.43;3.45;;;;;;;14.82;91.88;99012.47;5064087;28;20020;-64
2021/08/02 00:55:29;;;;;;;9.02;3.42;;;;;;;14.82;91.69;99002.75;5065545;28;20029;-64
2021/08/02 00:57:56;;;;;;;6.20;3.40;;;;;;;14.90;91.63;99016.63;5068377;28;20320;-64
2021/08/02 01:00:22;;;;;;;16.20;3.60;;;;;;;14.92;91.62;98998.03;5067924;28;20033;-64
2021/08/02 01:02:50;;;;;;;7.70;3.15;;;;;;;14.87;91.07;98963.72;5068009;28;20138;-64
2021/08/02 01:05:16;;;;;;;8.57;3.60;;;;;;;14.81;91.57;98952.47;5052486;28;20232;-64
2021/08/02 01:07:50;;;;;;;9.73;3.67;;;;;;;14.80;91.57;98967.47;5047962;28;20032;-64
2021/08/02 01:10:17;;;;;;;8.27;3.92;;;;;;;14.88;91.52;98956.66;5047999;28;20324;-64
2021/08/02 01:12:46;;;;;;;7.22;3.22;;;;;;;14.87;91.25;98973.44;5047928;28;20116;-64
2021/08/02 01:15:13;;;;;;;5.90;3.67;;;;;;;14.85;91.24;98985.91;5048971;28;20026;-64
2021/08/02 01:17:39;;;;;;;9.82;3.42;;;;;;;14.84;91.56;98985.00;5047798;28;20021;-64
2021/08/02 01:20:06;;;;;;;4.85;3.05;;;;;;;14.76;91.69;98951.72;5047756;28;20028;-64
2021/08/02 01:22:32;;;;;;;8.00;3.33;;;;;;;14.80;91.35;98942.75;5047914;28;20037;-64
2021/08/02 01:25:19;;;;;;;8.73;3.15;;;;;;;14.77;91.64;98934.91;5047574;28;20056;-64
2021/08/02 01:27:47;;;;;;;4.82;3.53;;;;;;;14.75;92.04;98931.44;5047873;28;20024;-64
2021/08/02 01:30:23;;;;;;;7.22;3.30;;;;;;;14.74;91.89;98929.69;5047569;28;20167;-64
2021/08/02 01:32:50;;;;;;;7.70;3.70;;;;;;;14.70;91.92;98912.16;5057868;28;20084;-64
2021/08/02 01:35:16;;;;;;;11.23;4.90;;;;;;;14.73;91.99;98917.38;5067487;28;20021;-64
2021/08/02 01:37:43;;;;;;;4.35;3.03;;;;;;;14.75;92.03;98920.84;5067713;28;20025;-64
2021/08/02 01:40:10;;;;;;;6.68;3.25;;;;;;;14.64;92.15;98917.66;5067383;28;20138;-64
2021/08/02 01:42:37;;;;;;;8.40;3.58;;;;;;;14.71;92.51;98919.19;5067282;28;20363;-64
2021/08/02 01:45:03;;;;;;;5.05;3.20;;;;;;;14.72;92.49;98923.59;5067341;28;20048;-64
2021/08/02 01:47:41;;;;;;;7.20;3.38;;;;;;;14.73;92.21;98917.38;5067189;28;20028;-64
2021/08/02 01:50:39;;;;;;;6.18;3.35;;;;;;;14.69;91.94;98915.75;5067112;28;20212;-64
2021/08/02 01:53:11;;;;;;;6.97;3.20;;;;;;;14.69;91.97;98915.75;5066644;28;20044;-64
2021/08/02 01:55:37;;;;;;;5.28;2.90;;;;;;;14.68;92.23;99163.06;5067195;28;20063;-64
2021/08/02 01:58:06;;;;;;;6.05;3.35;;;;;;;14.66;91.85;99080.09;5065416;28;20088;-64
2021/08/02 02:00:36;;;;;;;9.50;3.17;;;;;;;14.66;92.07;99012.09;5066871;28;20041;-64
2021/08/02 02:03:24;;;;;;;8.25;3.17;;;;;;;14.65;92.39;98988.28;5066826;28;20033;-64
2021/08/02 02:05:59;;;;;;;7.95;3.58;;;;;;;14.58;92.15;98970.81;5066428;28;20020;-64
2021/08/02 02:08:32;;;;;;;8.25;3.42;;;;;;;14.60;92.18;98966.34;5066714;28;20374;-64
2021/08/02 02:11:01;;;;;;;4.35;3.10;;;;;;;14.52;91.95;98960.41;5066778;28;20066;-64
2021/08/02 02:13:41;;;;;;;10.57;3.00;;;;;;;14.55;91.88;98961.19;5066692;28;20267;-64
2021/08/02 02:16:09;;;;;;;5.20;3.25;;;;;;;14.47;91.99;98949.09;5066665;28;20048;-64
2021/08/02 02:18:39;;;;;;;5.53;3.17;;;;;;;14.42;92.34;98948.34;5052393;28;20061;-64
2021/08/02 02:21:07;;;;;;;11.13;3.63;;;;;;;14.46;92.57;98944.72;5046456;28;20021;-64
2021/08/02 02:23:33;;;;;;;12.77;3.30;;;;;;;14.48;92.40;98932.28;5046429;28;20435;-64
2021/08/02 02:25:59;;;;;;;10.32;3.30;;;;;;;14.46;92.09;98931.47;5050296;28;20029;-64
2021/08/02 02:28:25;;;;;;;10.18;3.50;;;;;;;14.48;91.84;98932.28;5066381;28;20265;-64
2021/08/02 02:30:52;;;;;;;7.05;3.15;;;;;;;14.46;91.92;98934.13;5066353;28;20025;-64
2021/08/02 02:33:19;;;;;;;11.40;3.40;;;;;;;14.44;91.70;98931.53;5066285;28;20024;-64
2021/08/02 02:35:46;;;;;;;7.28;4.03;;;;;;;14.32;92.02;98941.59;5063012;28;20036;-64
2021/08/02 02:38:13;;;;;;;6.00;3.28;;;;;;;14.32;92.43;98920.41;5046215;28;20076;-64
2021/08/02 02:40:43;;;;;;;5.63;3.70;;;;;;;14.31;92.54;98908.97;5046259;28;20026;-64
2021/08/02 02:43:09;;;;;;;4.70;3.28;;;;;;;14.37;92.35;98923.81;5046350;28;20215;-64
2021/08/02 02:45:36;;;;;;;8.52;2.83;;;;;;;14.38;92.74;98917.56;5046038;28;20025;-64
2021/08/02 02:48:04;;;;;;;6.15;3.30;;;;;;;14.26;92.97;98916.16;5046057;28;20258;-64
2021/08/02 02:50:30;;;;;;;7.00;3.65;;;;;;;14.24;93.22;98909.19;5045886;28;20026;-64
2021/08/02 02:52:57;;;;;;;8.75;3.70;;;;;;;14.28;93.26;98934.66;5045928;28;20051;-64
2021/08/02 02:55:25;;;;;;;7.38;3.58;;;;;;;14.22;93.12;98934.78;5060202;28;20036;-64
2021/08/02 02:57:52;;;;;;;6.68;3.50;;;;;;;14.16;93.54;98925.25;5065725;28;20025;-64
2021/08/02 03:00:19;;;;;;;5.97;3.35;;;;;;;14.20;93.33;98931.31;5065717;28;20055;-64
2021/08/02 03:02:47;;;;;;;13.90;3.80;;;;;;;14.17;93.15;98921.69;5065618;28;20084;-64
2021/08/02 03:05:13;;;;;;;9.65;3.63;;;;;;;14.13;93.42;98921.81;5065584;28;20021;-64
2021/08/02 03:07:40;;;;;;;8.77;3.90;;;;;;;14.16;93.71;98924.38;5065157;28;20081;-64
2021/08/02 03:10:07;;;;;;;8.30;3.67;;;;;;;14.15;93.58;98922.66;5065455;28;20025;-64
2021/08/02 03:12:34;;;;;;;9.25;4.10;;;;;;;14.24;93.25;98925.06;5065421;28;20035;-64
2021/08/02 03:15:00;;;;;;;6.53;3.45;;;;;;;14.27;93.29;98917.91;5065357;28;20032;-64
2021/08/02 03:17:26;;;;;;;10.15;3.85;;;;;;;14.28;93.31;98918.78;5064714;28;20070;-64
2021/08/02 03:19:52;;;;;;;9.63;3.72;;;;;;;14.22;93.37;98921.56;5050148;28;20041;-64
2021/08/02 03:22:28;;;;;;;9.57;3.88;;;;;;;14.21;93.76;98927.78;5049430;28;20032;-64
2021/08/02 03:25:12;;;;;;;14.40;3.88;;;;;;;14.16;93.62;98924.38;5065232;28;20092;-64
2021/08/02 03:28:22;;;;;;;6.80;3.50;;;;;;;14.21;93.15;98975.44;5065139;28;20220;-64
2021/08/02 03:30:50;;;;;;;9.60;3.85;;;;;;;14.19;93.42;98982.53;5065023;28;20097;-64
2021/08/02 03:33:19;;;;;;;6.03;3.53;;;;;;;14.14;93.66;98963.28;5065060;28;20020;-64
2021/08/02 03:35:48;;;;;;;6.88;3.47;;;;;;;14.06;93.54;98954.69;5064947;28;20044;-64
2021/08/02 03:38:15;;;;;;;11.15;3.67;;;;;;;14.02;93.91;98947.75;5064925;28;20273;-64
2021/08/02 03:40:43;;;;;;;6.90;3.75;;;;;;;14.00;93.88;98950.44;5064868;28;20025;-64
2021/08/02 03:43:09;;;;;;;9.43;4.38;;;;;;;14.04;93.80;98951.19;5064727;28;20033;-64
2021/08/02 03:45:35;;;;;;;8.90;3.85;;;;;;;14.11;93.34;98964.22;5064760;28;20059;-64
2021/08/02 03:48:02;;;;;;;6.80;4.10;;;;;;;14.02;93.44;98953.88;5065019;28;20349;-64
2021/08/02 03:50:29;;;;;;;7.57;3.22;;;;;;;14.06;93.26;98967.91;5059893;28;20022;-64
2021/08/02 03:52:55;;;;;;;7.72;4.03;;;;;;;14.06;93.35;98962.63;5044686;28;20035;-64
2021/08/02 03:55:23;;;;;;;8.07;3.42;;;;;;;14.02;93.17;98958.34;5044691;28;20026;-64
2021/08/02 03:57:49;;;;;;;15.02;4.03;;;;;;;13.95;93.49;98962.06;5044695;28;20021;-64
2021/08/02 04:00:15;;;;;;;7.53;3.90;;;;;;;13.92;93.22;98951.56;5044455;28;20107;-64
2021/08/02 04:02:40;;;;;;;4.53;3.22;;;;;;;13.87;93.46;98950.81;5044461;28;20036;-64
2021/08/02 04:05:07;;;;;;;5.30;3.72;;;;;;;13.83;93.55;98946.53;5044482;28;20050;-64
2021/08/02 04:07:32;;;;;;;7.30;3.60;;;;;;;13.85;93.29;98953.50;5044475;28;20032;-64
2021/08/02 04:09:58;;;;;;;9.35;3.67;;;;;;;13.79;93.49;98950.16;5043302;28;20029;-64
2021/08/02 04:12:23;;;;;;;7.55;3.97;;;;;;;13.79;93.94;98958.09;5046601;28;20029;-64
2021/08/02 04:14:49;;;;;;;6.28;3.80;;;;;;;13.84;93.94;98964.13;5045474;28;20017;-64
2021/08/02 04:17:14;;;;;;;9.70;4.35;;;;;;;13.85;93.83;98957.91;5046482;28;20025;-64
2021/08/02 04:19:40;;;;;;;6.20;2.97;;;;;;;13.94;93.65;98966.47;5044304;28;20029;-64
2021/08/02 04:22:05;;;;;;;11.85;4.07;;;;;;;13.94;93.78;98962.94;5044274;28;20029;-64
2021/08/02 04:24:31;;;;;;;7.90;3.53;;;;;;;13.93;93.63;99012.38;5044184;28;20025;-64
2021/08/02 04:26:56;;;;;;;8.32;3.83;;;;;;;13.99;93.75;99075.72;5044160;28;20053;-64
2021/08/02 04:29:21;;;;;;;9.15;3.50;;;;;;;14.05;93.57;99196.47;5044027;28;20048;-64
2021/08/02 04:31:47;;;;;;;7.70;3.78;;;;;;;14.07;93.36;99152.28;5044082;28;20080;-64
2021/08/02 04:34:12;;;;;;;6.60;4.03;;;;;;;14.13;93.65;99149.47;5044103;28;20032;-64
2021/08/02 04:36:38;;;;;;;5.18;3.50;;;;;;;14.23;93.33;99169.53;5044046;28;20021;-64
2021/08/02 04:39:04;;;;;;;6.25;3.40;;;;;;;14.28;93.21;99194.16;5044003;28;20025;-64
2021/08/02 04:41:29;;;;;;;6.28;3.90;;;;;;;14.35;92.82;99206.31;5043976;28;20056;-64
2021/08/02 04:43:54;;;;;;;7.68;3.10;;;;;;;14.40;92.70;99209.72;5043910;28;20375;-64
2021/08/02 04:46:20;;;;;;;5.22;3.33;;;;;;;14.49;92.66;99220.09;5043931;28;20026;-64
2021/08/02 04:48:46;;;;;;;10.15;3.65;;;;;;;14.49;92.58;99183.00;5043918;28;20028;-64
2021/08/02 04:51:11;;;;;;;7.53;3.53;;;;;;;14.55;92.80;99230.50;5044160;28;20320;-64
2021/08/02 04:53:37;;;;;;;5.80;3.33;;;;;;;14.57;92.84;99212.81;5044116;28;20064;-64
2021/08/02 04:56:02;;;;;;;10.43;4.22;;;;;;;14.60;92.68;99186.25;5044110;28;20089;-64
2021/08/02 04:58:28;;;;;;;11.63;4.82;;;;;;;14.61;93.32;99191.50;5043749;28;20032;-64
2021/08/02 05:00:53;;;;;;;9.85;4.60;;;;;;;14.66;92.84;99144.56;5043674;28;20048;-64
2021/08/02 05:03:19;;;;;;;6.93;4.57;;;;;;;14.74;92.96;99152.28;5043687;28;20029;-64
2021/08/02 05:05:44;;;;;;;7.50;4.78;;;;;;;14.83;93.03;99138.78;5043730;28;20185;-64
2021/08/02 05:08:09;;;;;;;7.40;4.53;;;;;;;14.86;92.93;99242.06;5043978;28;20021;-64
2021/08/02 05:10:35;;;;;;;14.48;5.15;;;;;;;14.96;92.70;99179.91;5043666;28;20022;-64
2021/08/02 05:13:00;;;;;;;7.28;4.20;;;;;;;15.03;92.51;99261.03;5043638;28;20060;-64
2021/08/02 05:15:26;;;;;;;7.20;4.60;;;;;;;15.07;92.46;99262.69;5043658;28;20213;-64
2021/08/02 05:17:51;;;;;;;11.10;4.18;;;;;;;15.08;92.23;99265.31;5043641;28;20206;-64
2021/08/02 05:20:19;;;;;;;10.85;5.05;;;;;;;15.07;92.52;99300.66;5043607;28;20044;-64
2021/08/02 05:22:45;;;;;;;11.60;4.85;;;;;;;15.07;92.34;99299.81;5043456;28;20032;-64
2021/08/02 05:25:11;;;;;;;147.75;16.42;;;;;;;15.14;92.31;99320.81;5043554;28;20028;-64
2021/08/02 05:27:37;;;;;;;11.38;5.82;;;;;;;15.11;92.24;99306.75;5043554;28;20029;-64
2021/08/02 05:30:03;;;;;;;7.53;5.07;;;;;;;15.18;91.85;99334.00;5043515;28;20018;-64
2021/08/02 05:32:29;;;;;;;11.18;5.05;;;;;;;15.21;92.26;99345.38;5043405;28;20123;-64
2021/08/02 05:34:54;;;;;;;6.57;5.25;;;;;;;15.26;92.15;99364.72;5043539;28;20029;-64
2021/08/02 05:37:20;;;;;;;7.63;5.20;;;;;;;15.32;92.16;99332.72;5043469;28;20084;-64
2021/08/02 05:39:45;;;;;;;10.50;5.20;;;;;;;15.29;91.85;99343.41;5043414;28;20021;-64
2021/08/02 05:42:10;;;;;;;9.68;5.43;;;;;;;15.33;91.77;99382.19;5045940;28;20021;-64
2021/08/02 05:44:36;;;;;;;8.10;5.13;;;;;;;15.35;91.33;99395.41;5047084;28;20018;-64
2021/08/02 05:47:02;;;;;;;12.18;5.20;;;;;;;15.38;92.07;99390.94;5047175;28;20022;-64
2021/08/02 05:49:28;;;;;;;9.80;5.72;;;;;;;15.38;92.20;99408.63;5047154;28;20032;-64
2021/08/02 05:51:57;;;;;;;10.43;5.70;;;;;;;15.45;91.87;99389.88;5047060;28;20021;-64
2021/08/02 05:54:22;;;;;;;9.13;5.90;;;;;;;15.47;91.89;99382.72;5047054;28;20236;-64
2021/08/02 05:56:48;;;;;;;7.40;4.68;;;;;;;15.48;91.40;99334.06;5047007;28;20093;-64
2021/08/02 05:59:13;;;;;;;9.50;6.10;;;;;;;15.59;91.89;99323.13;5046761;28;20033;-64
2021/08/02 06:01:38;;;;;;;10.18;5.50;;;;;;;15.59;92.04;99331.97;5046901;28;20033;-64
2021/08/02 06:04:04;;;;;;;9.60;5.28;;;;;;;15.65;92.56;99315.88;5046703;28;20022;-64
2021/08/02 06:06:30;;;;;;;9.35;5.43;;;;;;;15.63;92.31;99319.50;5046830;28;20040;-64
2021/08/02 06:08:55;;;;;;;7.85;4.65;;;;;;;15.69;91.68;99306.91;5046732;28;20029;-64
2021/08/02 06:11:20;;;;;;;7.63;4.45;;;;;;;15.71;91.62;99302.44;5046687;28;20378;-64
2021/08/02 06:13:48;;;;;;;12.13;4.72;;;;;;;15.68;92.08;99304.28;5046622;28;20025;-64
2021/08/02 06:16:14;;;;;;;9.55;4.68;;;;;;;15.76;91.61;99303.16;5046577;28;20081;-64
2021/08/02 06:18:39;;;;;;;5.68;4.05;;;;;;;15.82;91.49;99305.63;5046523;28;20025;-64
2021/08/02 06:21:05;;;;;;;7.47;5.20;;;;;;;15.92;92.42;99315.09;5046512;28;20025;-64
2021/08/02 06:23:30;;;;;;;6.50;3.80;;;;;;;15.90;90.89;99305.41;5046394;28;20085;-64
2021/08/02 06:25:56;;;;;;;7.43;3.95;;;;;;;15.93;90.71;99311.50;5046364;28;20026;-64
2021/08/02 06:28:21;;;;;;;5.78;3.85;;;;;;;16.00;90.66;99302.44;5046388;28;20021;-64
2021/08/02 06:30:47;;;;;;;6.57;4.03;;;;;;;15.98;91.38;99296.28;5046343;28;20248;-64
2021/08/02 06:33:12;;;;;;;8.05;4.43;;;;;;;15.93;91.06;99290.25;5046269;28;20022;-64
2021/08/02 06:35:37;;;;;;;7.63;4.25;;;;;;;16.03;90.71;99297.03;5046239;28;20089;-64
2021/08/02 06:38:04;;;;;;;8.82;3.85;;;;;;;16.17;90.31;99301.91;5046418;28;20079;-64
2021/08/02 06:40:29;;;;;;;10.27;3.97;;;;;;;16.23;90.68;99307.06;5046213;28;20081;-64
2021/08/02 06:42:55;;;;;;;8.30;4.00;;;;;;;16.23;90.63;99304.38;5046041;28;20021;-64
2021/08/02 06:45:20;;;;;;;5.13;4.03;;;;;;;16.42;90.50;99325.00;5046088;28;20286;-64
2021/08/02 06:47:47;;;;;;;13.77;4.28;;;;;;;16.46;91.36;99312.53;5046003;28;20248;-64
2021/08/02 06:50:12;;;;;;;6.55;3.95;;;;;;;16.48;91.03;99306.25;5045988;28;20100;-64
2021/08/02 06:52:37;;;;;;;4.88;3.67;;;;;;;16.50;90.87;99299.09;5044671;28;20029;-64
2021/08/02 06:55:03;;;;;;;6.68;3.97;;;;;;;16.55;90.72;99297.13;5046122;28;20081;-64
2021/08/02 06:57:28;;;;;;;6.35;3.63;;;;;;;16.44;89.49;99288.66;5045825;28;20022;-64
2021/08/02 06:59:55;;;;;;;4.82;3.50;;;;;;;16.48;89.67;99290.28;5045611;28;20072;-64
2021/08/02 07:02:21;;;;;;;6.05;3.47;;;;;;;16.53;89.25;99283.06;5045659;28;20071;-64
2021/08/02 07:04:46;;;;;;;6.35;4.07;;;;;;;16.61;89.56;99288.97;5045586;28;20029;-64
2021/08/02 07:07:12;;;;;;;6.22;4.00;;;;;;;16.67;90.49;99288.75;5045655;28;20094;-64
2021/08/02 07:09:37;;;;;;;7.03;3.92;;;;;;;16.71;88.95;99298.38;5044442;28;20025;-64
2021/08/02 07:12:03;;;;;;;6.93;3.70;;;;;;;16.71;88.82;99297.53;5045840;28;20265;-64
2021/08/02 07:14:28;;;;;;;7.90;3.95;;;;;;;16.72;89.03;99294.81;5045521;28;20021;-64
2021/08/02 07:16:54;;;;;;;4.70;3.33;;;;;;;16.81;88.56;99293.63;5045436;28;20085;-64
2021/08/02 07:19:19;;;;;;;8.18;3.88;;;;;;;16.81;89.30;99294.47;5045411;28;20025;-64
2021/08/02 07:21:45;;;;;;;7.63;4.40;;;;;;;16.95;88.55;99305.53;5045334;28;20232;-64
2021/08/02 07:24:10;;;;;;;7.35;4.63;;;;;;;16.96;87.53;99299.28;5045219;28;20225;-64
2021/08/02 07:26:36;;;;;;;8.15;4.18;;;;;;;16.93;88.70;99296.72;5045259;28;20032;-64
2021/08/02 07:29:02;;;;;;;7.60;4.57;;;;;;;16.99;88.77;99299.19;5045194;28;20052;-64
2021/08/02 07:31:28;;;;;;;11.02;5.25;;;;;;;17.02;88.26;99282.22;5045211;28;20021;-64
2021/08/02 07:33:54;;;;;;;8.00;5.20;;;;;;;17.00;87.72;99284.94;5045106;28;20080;-64
2021/08/02 07:36:20;;;;;;;8.48;4.55;;;;;;;17.08;87.41;99292.66;5045167;28;20025;-64
2021/08/02 07:38:45;;;;;;;7.18;5.43;;;;;;;16.99;89.63;99287.66;5045012;28;20052;-64
2021/08/02 07:41:12;;;;;;;9.63;5.10;;;;;;;16.90;90.18;99293.31;5045219;28;20032;-64
2021/08/02 07:43:37;;;;;;;8.82;5.07;;;;;;;16.91;89.10;99285.28;5044876;28;20324;-64
2021/08/02 07:46:03;;;;;;;10.30;5.63;;;;;;;16.89;88.27;99281.81;5044912;28;20051;-64
2021/08/02 07:48:28;;;;;;;7.78;5.40;;;;;;;17.10;88.15;99286.41;5044864;28;20244;-64
2021/08/02 07:50:54;;;;;;;7.43;4.18;;;;;;;17.14;86.80;99287.13;5043654;28;20063;-64
2021/08/02 07:53:19;;;;;;;10.98;5.47;;;;;;;17.79;85.39;99314.06;5044786;28;20022;-64
2021/08/02 07:55:45;;;;;;;7.57;4.55;;;;;;;18.98;81.54;99348.34;5044676;28;20316;-64
2021/08/02 07:58:11;;;;;;;9.25;3.50;;;;;;;19.22;80.34;99333.09;5044688;28;20087;-64
2021/08/02 08:00:37;;;;;;;9.30;4.05;;;;;;;19.40;79.02;99332.34;5044416;28;20049;-64
2021/08/02 08:03:03;;;;;;;7.30;3.80;;;;;;;19.79;78.22;99335.91;5044458;28;20217;-64
2021/08/02 08:05:29;;;;;;;5.03;3.97;;;;;;;20.45;75.59;99370.25;5044161;28;20095;-64
2021/08/02 08:07:55;;;;;;;8.70;3.92;;;;;;;20.51;73.64;99345.91;5044749;28;20259;-64
2021/08/02 08:10:22;;;;;;;4.72;4.15;;;;;;;21.65;72.21;99384.75;5044457;28;20067;-64
2021/08/02 08:12:49;;;;;;;7.13;4.03;;;;;;;21.75;71.74;99352.97;5044430;28;20224;-64
2021/08/02 08:15:16;;;;;;;5.53;3.65;;;;;;;21.14;70.52;99328.50;5044375;28;20312;-64
2021/08/02 08:17:42;;;;;;;10.10;3.80;;;;;;;20.66;72.57;99294.31;5044331;28;20313;-64
2021/08/02 08:20:10;;;;;;;7.85;3.72;;;;;;;20.43;73.43;99281.19;5044280;28;20055;-64
2021/08/02 08:22:36;;;;;;;6.32;3.55;;;;;;;20.53;75.03;99282.47;5044161;28;20270;-64
2021/08/02 08:25:03;;;;;;;6.55;3.67;;;;;;;20.41;74.65;99272.38;5044218;28;20084;-64
2021/08/02 08:27:28;;;;;;;5.03;3.65;;;;;;;21.06;73.96;99304.78;5044119;28;20345;-64
2021/08/02 08:29:54;;;;;;;5.38;3.40;;;;;;;21.61;72.10;99331.38;5044145;28;20068;-64
2021/08/02 08:32:19;;;;;;;5.32;3.38;;;;;;;21.67;73.71;99317.66;5044116;28;20070;-64
2021/08/02 08:34:45;;;;;;;4.75;3.38;;;;;;;22.40;67.75;99327.00;5044095;28;20120;-64
2021/08/02 08:37:10;;;;;;;5.85;3.22;;;;;;;22.45;69.93;99319.56;5044071;28;20032;-64
2021/08/02 08:39:36;;;;;;;5.32;3.45;;;;;;;21.51;70.96;99279.25;5044012;28;20021;-64
2021/08/02 08:42:01;;;;;;;6.00;3.47;;;;;;;21.23;72.57;99369.03;5043999;28;20078;-64
2021/08/02 08:44:28;;;;;;;7.60;3.78;;;;;;;21.36;72.33;99259.50;5043878;28;20025;-64
2021/08/02 08:46:54;;;;;;;11.77;3.30;;;;;;;21.09;74.03;99251.09;5043957;28;20067;-64
2021/08/02 08:49:20;;;;;;;9.23;3.30;;;;;;;21.06;73.68;99235.19;5043901;28;20033;-64
2021/08/02 08:51:47;;;;;;;6.35;3.53;;;;;;;20.89;71.76;99237.81;5043909;28;20053;-64
2021/08/02 08:54:12;;;;;;;3.80;2.92;;;;;;;21.04;71.08;99231.72;5043891;28;20025;-64
2021/08/02 08:56:38;;;;;;;3.75;2.78;;;;;;;21.03;72.21;99235.34;5043859;28;20064;-64
2021/08/02 08:59:03;;;;;;;186.07;17.27;;;;;;;20.82;70.30;99216.81;5043620;28;20091;-64
2021/08/02 09:01:30;;;;;;;4.28;2.90;;;;;;;20.91;70.62;99219.00;5043853;28;20025;-64
2021/08/02 09:03:57;;;;;;;5.32;2.75;;;;;;;21.81;67.64;99257.06;5043612;28;20041;-64
2021/08/02 09:06:24;;;;;;;4.35;1.92;;;;;;;22.74;66.61;99283.03;5043752;28;20025;-64
2021/08/02 09:08:49;;;;;;;4.28;2.15;;;;;;;23.32;63.91;99261.69;5043727;28;20053;-64
2021/08/02 09:11:20;;;;;;;4.65;2.10;;;;;;;23.00;64.00;99242.13;5043743;28;20232;-64
2021/08/02 09:13:47;;;;;;;4.13;2.30;;;;;;;24.46;60.26;99305.50;5043684;28;20036;-64
2021/08/02 09:16:22;;;;;;;10.10;2.28;;;;;;;24.99;57.32;99282.16;5044650;28;20021;-64
2021/08/02 09:19:07;;;;;;;8.40;2.65;;;;;;;25.21;56.60;99285.13;5047639;28;20055;-64
2021/08/02 09:21:44;;;;;;;6.63;2.88;;;;;;;24.68;58.61;99231.31;5047610;28;20328;-64
2021/08/02 09:24:10;;;;;;;1.98;1.77;;;;;;;25.26;57.76;99233.59;5047480;28;20028;-64
2021/08/02 09:26:38;;;;;;;4.72;2.00;;;;;;;25.13;55.66;99222.78;5047487;28;20198;-64
2021/08/02 09:29:04;;;;;;;5.45;2.03;;;;;;;24.46;58.56;99187.91;5047454;28;20022;-64
2021/08/02 09:31:33;;;;;;;4.22;2.03;;;;;;;24.86;56.51;99192.38;5047415;28;20063;-64
2021/08/02 09:34:06;;;;;;;3.53;1.75;;;;;;;24.85;55.58;99187.09;5047606;28;20025;-64
2021/08/02 09:36:44;;;;;;;1.95;1.42;;;;;;;24.04;57.30;99153.09;5047388;28;20021;-64
2021/08/02 09:39:12;;;;;;;2.30;1.58;;;;;;;23.42;60.33;99132.06;5047321;28;20209;-64
2021/08/02 09:41:37;;;;;;;4.65;1.85;;;;;;;23.11;61.86;99121.47;5047247;28;20058;-64
2021/08/02 09:44:05;;;;;;;5.18;1.90;;;;;;;23.11;61.95;99113.41;5047056;28;20089;-64
2021/08/02 09:46:31;;;;;;;6.07;2.03;;;;;;;22.85;61.09;99116.84;5047108;28;20021;-64
2021/08/02 09:49:04;;;;;;;2.92;1.90;;;;;;;22.93;63.85;99111.84;5047158;28;20339;-64
2021/08/02 09:51:42;;;;;;;3.70;2.05;;;;;;;22.52;65.89;99094.72;5047339;28;20322;-64
2021/08/02 09:54:08;;;;;;;5.90;2.40;;;;;;;22.19;67.00;99080.63;5047254;28;20018;-64
2021/08/02 09:56:35;;;;;;;7.25;2.28;;;;;;;21.94;67.88;99081.19;5047016;28;20088;-64
2021/08/02 09:59:01;;;;;;;3.40;2.22;;;;;;;21.91;67.11;99069.78;5046692;28;20027;-64
2021/08/02 10:01:27;;;;;;;165.82;22.98;;;;;;;22.45;66.55;99093.34;5046921;28;20018;-64
2021/08/02 10:03:53;;;;;;;4.13;2.05;;;;;;;23.91;63.46;99138.69;5046692;28;20059;-64
2021/08/02 10:06:19;;;;;;;5.10;2.05;;;;;;;24.84;59.50;99167.38;5046770;28;20017;-64
2021/08/02 10:08:45;;;;;;;2.58;2.00;;;;;;;24.77;60.48;99143.69;5046733;28;20025;-64
2021/08/02 10:11:11;;;;;;;3.78;2.03;;;;;;;23.63;61.53;99093.03;5046738;28;20084;-64
2021/08/02 10:13:43;;;;;;;4.25;1.65;;;;;;;24.65;58.06;99139.97;5046686;28;20017;-64
2021/08/02 10:16:14;;;;;;;3.28;2.00;;;;;;;25.19;61.38;99124.53;5046605;28;20084;-64
2021/08/02 10:18:40;;;;;;;3.47;2.00;;;;;;;25.04;57.49;99121.09;5046598;28;20021;-64
2021/08/02 10:21:11;;;;;;;4.45;2.00;;;;;;;25.63;57.66;99127.66;5046495;28;20060;-64
2021/08/02 10:23:40;;;;;;;3.38;1.60;;;;;;;24.77;56.11;99085.28;5046424;28;20033;-64
2021/08/02 10:26:19;;;;;;;4.47;1.63;;;;;;;25.85;56.68;99129.63;5046468;28;20021;-64
2021/08/02 10:28:58;;;;;;;4.47;1.77;;;;;;;25.96;53.06;99116.19;5046057;28;20021;-64
2021/08/02 10:31:26;;;;;;;4.78;1.90;;;;;;;25.38;58.09;99091.78;5046437;28;20093;-64
2021/08/02 10:33:53;;;;;;;2.75;1.83;;;;;;;26.06;53.63;99085.75;5046286;28;20025;-64
2021/08/02 10:36:20;;;;;;;2.67;1.63;;;;;;;25.95;53.92;99083.00;5046263;28;20095;-64
2021/08/02 10:38:48;;;;;;;3.03;1.65;;;;;;;25.89;53.95;99069.94;5046209;28;20099;-64
2021/08/02 10:41:31;;;;;;;3.88;1.40;;;;;;;25.95;52.92;99065.94;5046161;28;20060;-64
2021/08/02 10:43:58;;;;;;;4.45;1.90;;;;;;;26.51;53.09;99081.44;5046035;28;20021;-64
2021/08/02 10:46:28;;;;;;;5.10;1.77;;;;;;;26.39;52.40;99068.88;5046091;28;20025;-64
2021/08/02 10:49:06;;;;;;;3.03;1.35;;;;;;;26.71;52.14;99086.19;5046044;28;20044;-64
2021/08/02 10:51:32;;;;;;;2.55;1.70;;;;;;;26.26;52.72;99046.50;5046082;28;20025;-64
2021/08/02 10:54:03;;;;;;;4.82;1.30;;;;;;;26.22;51.68;99043.16;5045933;28;20021;-64
2021/08/02 10:56:32;;;;;;;1.35;1.25;;;;;;;25.93;50.88;99030.09;5045854;28;20313;-64
2021/08/02 10:59:00;;;;;;;4.10;1.65;;;;;;;26.11;55.41;99039.56;5045660;28;20088;-64
2021/08/02 11:01:27;;;;;;;2.05;1.50;;;;;;;25.99;53.36;99021.59;5046056;28;20320;-64
2021/08/02 11:03:54;;;;;;;2.20;1.30;;;;;;;25.40;53.61;99087.16;5045853;28;20029;-64
2021/08/02 11:06:19;;;;;;;3.78;1.83;;;;;;;26.21;53.82;99051.38;5045712;28;20051;-64
2021/08/02 11:08:55;;;;;;;5.72;1.60;;;;;;;26.51;52.72;99059.84;5045647;28;20340;-64
2021/08/02 11:11:26;;;;;;;4.68;1.80;;;;;;;26.06;50.91;99020.13;5045574;28;20029;-64
2021/08/02 11:14:13;;;;;;;4.07;1.77;;;;;;;26.26;51.23;99011.41;5045576;28;20021;-64
2021/08/02 11:16:41;;;;;;;6.25;1.50;;;;;;;26.71;52.25;99024.06;5045540;28;20071;-64
2021/08/02 11:19:17;;;;;;;7.47;1.80;;;;;;;26.86;49.70;99012.06;5045696;28;20021;-64
2021/08/02 11:21:45;;;;;;;192.65;88.13;;;;;;;26.13;51.45;98972.84;5045425;28;20025;-64
2021/08/02 11:24:11;;;;;;;3.20;1.70;;;;;;;26.36;54.86;98985.41;5045267;28;20028;-64
2021/08/02 11:26:54;;;;;;;4.07;2.28;;;;;;;26.91;48.78;98999.03;5045312;28;20029;-64
2021/08/02 11:29:23;;;;;;;4.47;2.30;;;;;;;26.82;53.80;98967.34;5045245;28;20320;-64
2021/08/02 11:32:10;;;;;;;5.10;2.33;;;;;;;26.70;53.67;98966.47;5045166;28;20025;-64
2021/08/02 11:34:38;;;;;;;3.95;2.03;;;;;;;26.02;52.75;98929.63;5045164;28;20017;-64
2021/08/02 11:37:05;;;;;;;5.25;2.08;;;;;;;25.70;53.03;98923.09;5044055;28;20022;-64